Time;durP1;ratioP1;P1;durP2;ratioP2;P2;SDS_P1;SDS_P2;PMS_P1;PMS_P2;Temp;Humidity;BMP_temperature;BMP_pressure;BME280_temperature;BME280_humidity;BME280_pressure;Samples;Min_cycle;Max_cycle;Signal;HPM_P1;HPM_P2
2021/04/17 00:00:33;;;;;;;11.57;2.33;;;16.70;99.90;;;;;;4995533;28;20062;-67
2021/04/17 00:03:00;;;;;;;11.07;2.72;;;16.70;99.90;;;;;;4993444;28;20403;-67
2021/04/17 00:05:27;;;;;;;12.98;2.90;;;16.70;99.90;;;;;;4995282;28;20024;-67
2021/04/17 00:07:54;;;;;;;8.60;2.90;;;16.70;99.90;;;;;;4993191;28;20037;-67
2021/04/17 00:10:22;;;;;;;11.13;2.55;;;16.70;99.90;;;;;;4994448;28;20083;-67
2021/04/17 00:12:49;;;;;;;16.25;3.65;;;16.80;99.90;;;;;;4992252;28;20062;-67
2021/04/17 00:15:16;;;;;;;11.20;1.95;;;16.80;99.90;;;;;;4991663;28;20023;-67
2021/04/17 00:17:44;;;;;;;8.55;2.78;;;16.90;99.90;;;;;;4993372;28;20122;-67
2021/04/17 00:20:11;;;;;;;14.13;3.22;;;17.10;99.90;;;;;;4993753;28;20505;-67
2021/04/17 00:22:39;;;;;;;9.85;2.03;;;17.10;99.90;;;;;;4988844;28;20035;-67
2021/04/17 00:25:06;;;;;;;11.93;2.50;;;17.20;99.90;;;;;;4995104;28;20026;-67
2021/04/17 00:27:34;;;;;;;13.75;2.28;;;17.30;99.90;;;;;;4993022;28;20402;-67
2021/04/17 00:30:01;;;;;;;8.30;2.67;;;17.30;99.90;;;;;;4995071;28;20029;-67
2021/04/17 00:32:28;;;;;;;10.40;1.98;;;17.30;99.90;;;;;;4992933;28;20053;-67
2021/04/17 00:34:56;;;;;;;13.57;2.83;;;17.40;99.90;;;;;;4993702;28;20027;-67
2021/04/17 00:37:23;;;;;;;14.88;3.10;;;17.40;99.90;;;;;;4991414;28;20030;-67
2021/04/17 00:39:50;;;;;;;12.48;2.55;;;17.30;99.90;;;;;;4994767;28;20031;-67
2021/04/17 00:42:18;;;;;;;10.85;2.53;;;17.40;99.90;;;;;;4992559;28;20018;-67
2021/04/17 00:44:45;;;;;;;14.27;3.35;;;17.50;99.90;;;;;;4994616;28;20097;-67
2021/04/17 00:47:12;;;;;;;14.38;2.58;;;17.60;99.90;;;;;;4992428;28;20119;-67
2021/04/17 00:49:40;;;;;;;14.57;2.85;;;17.70;99.90;;;;;;4991892;28;20492;-67
2021/04/17 00:52:08;;;;;;;13.75;2.85;;;17.70;99.90;;;;;;4993192;28;20467;-67
2021/04/17 00:54:36;;;;;;;13.57;3.13;;;17.90;99.90;;;;;;4992878;28;20031;-68
2021/04/17 00:57:04;;;;;;;14.57;2.85;;;17.90;99.90;;;;;;4992326;28;20425;-68
2021/04/17 00:59:31;;;;;;;13.18;2.67;;;18.10;99.90;;;;;;4994662;28;20026;-68
2021/04/17 01:01:59;;;;;;;11.57;2.17;;;18.00;99.90;;;;;;4992520;28;20109;-68
2021/04/17 01:04:44;;;;;;;9.82;2.03;;;18.20;99.90;;;;;;4992755;28;20483;-68
2021/04/17 01:07:37;;;;;;;11.55;1.88;;;18.30;99.90;;;;;;4991936;28;20026;-67
2021/04/17 01:10:31;;;;;;;12.50;2.10;;;18.50;99.90;;;;;;4994210;28;20111;-67
2021/04/17 01:12:58;;;;;;;10.85;1.98;;;18.60;99.90;;;;;;4992234;28;20061;-68
2021/04/17 01:15:26;;;;;;;8.30;1.80;;;18.70;99.90;;;;;;4992012;28;20128;-67
2021/04/17 01:17:56;;;;;;;16.75;2.80;;;18.80;99.90;;;;;;5004677;28;20030;-68
2021/04/17 01:20:53;;;;;;;7.97;1.45;;;18.80;99.90;;;;;;5013690;28;20492;-68
2021/04/17 01:23:36;;;;;;;8.23;1.45;;;18.80;99.90;;;;;;4993291;28;20047;-67
2021/04/17 01:26:07;;;;;;;6.07;1.75;;;18.70;99.90;;;;;;4994946;28;20060;-68
2021/04/17 01:28:44;;;;;;;9.35;1.23;;;18.70;99.90;;;;;;4992766;28;20037;-68
2021/04/17 01:31:14;;;;;;;7.47;1.90;;;18.70;99.90;;;;;;4993019;28;20356;-68
2021/04/17 01:33:47;;;;;;;11.27;1.75;;;18.60;99.90;;;;;;4992041;28;20061;-67
2021/04/17 01:36:16;;;;;;;8.18;1.45;;;18.70;99.90;;;;;;4992988;28;20104;-67
2021/04/17 01:38:53;;;;;;;6.40;1.55;;;18.60;99.90;;;;;;4992161;28;20069;-67
2021/04/17 01:41:23;;;;;;;7.55;1.05;;;18.60;99.90;;;;;;4990121;28;20077;-68
2021/04/17 01:43:53;;;;;;;7.45;1.85;;;18.50;99.90;;;;;;4974112;28;20106;-68
2021/04/17 01:46:24;;;;;;;8.68;1.40;;;18.50;99.90;;;;;;4974991;28;20025;-68
2021/04/17 01:49:00;;;;;;;13.18;1.98;;;18.50;99.90;;;;;;4981877;28;20542;-68
2021/04/17 01:51:28;;;;;;;8.00;1.40;;;18.50;99.90;;;;;;4991467;28;20050;-67
2021/04/17 01:54:00;;;;;;;6.88;1.20;;;18.40;99.90;;;;;;4993605;28;20387;-68
2021/04/17 01:56:29;;;;;;;8.57;1.60;;;18.40;99.90;;;;;;4991831;28;20022;-68
2021/04/17 01:58:59;;;;;;;11.32;2.47;;;18.50;99.90;;;;;;4991973;28;20117;-68
2021/04/17 02:01:26;;;;;;;6.97;1.02;;;18.40;99.90;;;;;;4990992;28;20048;-68
2021/04/17 02:03:54;;;;;;;6.93;1.70;;;18.40;99.90;;;;;;4993277;28;20026;-68
2021/04/17 02:06:22;;;;;;;9.48;1.60;;;18.40;99.90;;;;;;4991115;28;20041;-68
2021/04/17 02:08:49;;;;;;;6.93;1.83;;;18.40;99.90;;;;;;4993428;28;20106;-68
2021/04/17 02:11:16;;;;;;;9.80;1.75;;;18.30;99.90;;;;;;4990569;28;20030;-68
2021/04/17 02:13:45;;;;;;;10.52;2.45;;;18.30;99.90;;;;;;4992284;28;20100;-67
2021/04/17 02:16:17;;;;;;;10.27;2.08;;;18.20;99.90;;;;;;4991280;28;20042;-68
2021/04/17 02:19:09;;;;;;;5.13;1.20;;;18.20;99.90;;;;;;4992925;28;20030;-68
2021/04/17 02:21:43;;;;;;;9.40;1.60;;;18.10;99.90;;;;;;4991632;28;20034;-68
2021/04/17 02:24:11;;;;;;;5.95;1.42;;;18.10;99.90;;;;;;4993118;28;20057;-67
2021/04/17 02:26:40;;;;;;;7.28;1.58;;;18.10;99.90;;;;;;4989876;28;20049;-68
2021/04/17 02:29:08;;;;;;;6.90;1.65;;;18.00;99.90;;;;;;4993329;28;20026;-68
2021/04/17 02:31:36;;;;;;;10.95;1.38;;;18.00;99.90;;;;;;4991221;28;20143;-68
2021/04/17 02:34:04;;;;;;;9.05;1.38;;;17.90;99.90;;;;;;4993127;28;20085;-67
2021/04/17 02:36:31;;;;;;;8.25;1.20;;;17.90;99.90;;;;;;4990957;28;20057;-68
2021/04/17 02:38:58;;;;;;;6.45;1.70;;;17.80;99.90;;;;;;4993157;28;20473;-68
2021/04/17 02:41:26;;;;;;;11.90;2.60;;;17.70;99.90;;;;;;4990362;28;20541;-68
2021/04/17 02:43:53;;;;;;;8.05;1.90;;;17.60;99.90;;;;;;4990345;28;20034;-67
2021/04/17 02:46:20;;;;;;;7.28;1.45;;;17.70;99.90;;;;;;4991009;28;20022;-68
2021/04/17 02:48:48;;;;;;;10.32;2.45;;;17.60;99.90;;;;;;4991740;28;20034;-67
2021/04/17 02:51:15;;;;;;;7.45;1.48;;;17.70;99.90;;;;;;4991740;28;20057;-67
2021/04/17 02:53:42;;;;;;;8.95;1.05;;;17.60;99.90;;;;;;4992491;28;20076;-68
2021/04/17 02:56:09;;;;;;;9.20;1.42;;;17.50;99.90;;;;;;4992366;28;20022;-67
2021/04/17 02:58:37;;;;;;;6.03;0.90;;;17.60;99.90;;;;;;4992021;28;20029;-68
2021/04/17 03:01:04;;;;;;;11.05;1.77;;;17.60;99.90;;;;;;4992791;28;20101;-67
2021/04/17 03:03:31;;;;;;;8.57;1.23;;;17.60;99.90;;;;;;4989566;28;20364;-67
2021/04/17 03:05:59;;;;;;;6.35;1.05;;;17.60;99.90;;;;;;4993149;28;20077;-67
2021/04/17 03:08:26;;;;;;;6.65;1.33;;;17.70;99.90;;;;;;4989866;28;20037;-67
2021/04/17 03:10:54;;;;;;;7.70;1.10;;;17.70;99.90;;;;;;4996705;28;20481;-68
2021/04/17 03:13:21;;;;;;;3.85;1.20;;;17.70;99.90;;;;;;4994793;28;20023;-67
2021/04/17 03:15:48;;;;;;;5.25;1.02;;;17.60;99.90;;;;;;4994159;28;20065;-68
2021/04/17 03:18:15;;;;;;;12.35;1.20;;;17.70;99.90;;;;;;4992801;28;20118;-68
2021/04/17 03:20:43;;;;;;;5.35;0.90;;;17.60;99.90;;;;;;4995193;28;20109;-68
2021/04/17 03:23:10;;;;;;;3.53;1.00;;;17.70;99.90;;;;;;4994000;28;20031;-67
2021/04/17 03:25:37;;;;;;;3.92;0.60;;;17.70;99.90;;;;;;4996313;28;20471;-68
2021/04/17 03:28:05;;;;;;;7.63;0.80;;;17.70;99.90;;;;;;4994680;28;20026;-68
2021/04/17 03:30:32;;;;;;;4.90;0.77;;;17.70;99.90;;;;;;4996250;28;20034;-68
2021/04/17 03:33:02;;;;;;;5.05;0.60;;;17.70;99.90;;;;;;4992704;28;20038;-68
2021/04/17 03:35:31;;;;;;;7.13;1.38;;;17.70;99.90;;;;;;4995931;28;20498;-68
2021/04/17 03:37:59;;;;;;;5.47;1.45;;;17.70;99.90;;;;;;4992275;28;20475;-68
2021/04/17 03:40:27;;;;;;;6.60;1.80;;;17.80;99.90;;;;;;4995689;28;20022;-68
2021/04/17 03:42:55;;;;;;;8.82;1.60;;;17.80;99.90;;;;;;4993837;28;20033;-68
2021/04/17 03:45:23;;;;;;;7.13;2.17;;;17.80;99.90;;;;;;4996040;28;20034;-68
2021/04/17 03:47:52;;;;;;;4.70;0.93;;;17.80;99.90;;;;;;4993061;28;20042;-68
2021/04/17 03:50:19;;;;;;;2.95;0.47;;;17.70;99.90;;;;;;4995822;28;20038;-68
2021/04/17 03:52:47;;;;;;;8.25;0.85;;;17.70;99.90;;;;;;4990714;28;20026;-68
2021/04/17 03:55:16;;;;;;;6.63;1.05;;;17.70;99.90;;;;;;4995716;28;20491;-68
2021/04/17 03:57:45;;;;;;;6.35;0.98;;;17.70;99.90;;;;;;4991712;28;20471;-68
2021/04/17 04:00:15;;;;;;;4.70;0.80;;;17.70;99.90;;;;;;4995812;28;20026;-68
2021/04/17 04:02:42;;;;;;;3.70;0.70;;;17.60;99.90;;;;;;4994231;28;20030;-68
2021/04/17 04:05:11;;;;;;;5.07;0.70;;;17.60;99.90;;;;;;4994431;28;20105;-68
2021/04/17 04:07:39;;;;;;;6.38;1.15;;;17.70;99.90;;;;;;4991743;28;20029;-68
2021/04/17 04:10:08;;;;;;;7.88;1.38;;;17.80;99.90;;;;;;4995371;28;20553;-68
2021/04/17 04:12:36;;;;;;;5.38;0.80;;;17.70;99.90;;;;;;4993428;28;20026;-68
2021/04/17 04:15:04;;;;;;;7.28;0.80;;;17.60;99.90;;;;;;4992228;28;20554;-68
2021/04/17 04:17:32;;;;;;;7.57;0.88;;;17.70;99.90;;;;;;4990334;28;20073;-68
2021/04/17 04:19:59;;;;;;;8.43;1.10;;;17.70;99.90;;;;;;4994726;28;20033;-68
2021/04/17 04:22:26;;;;;;;8.10;1.63;;;17.70;99.90;;;;;;4992963;28;20033;-68
2021/04/17 04:24:53;;;;;;;6.80;1.25;;;17.60;99.90;;;;;;4995152;28;20113;-68
2021/04/17 04:27:21;;;;;;;8.15;1.17;;;17.60;99.90;;;;;;4992764;28;20022;-68
2021/04/17 04:29:48;;;;;;;4.60;1.25;;;17.50;99.90;;;;;;4994912;28;20121;-68
2021/04/17 04:32:15;;;;;;;4.03;0.70;;;17.50;99.90;;;;;;4993059;28;20022;-67
2021/04/17 04:34:43;;;;;;;4.18;0.65;;;17.40;99.90;;;;;;4992359;28;20030;-68
2021/04/17 04:37:10;;;;;;;6.72;1.50;;;17.40;99.90;;;;;;4999774;28;20084;-68
2021/04/17 04:39:37;;;;;;;7.20;0.82;;;17.40;99.90;;;;;;5013218;28;20390;-68
2021/04/17 04:42:05;;;;;;;5.25;1.20;;;17.40;99.90;;;;;;5004913;28;20022;-67
2021/04/17 04:44:36;;;;;;;8.70;0.98;;;17.50;99.90;;;;;;4994887;28;20491;-68
2021/04/17 04:47:03;;;;;;;3.85;0.93;;;17.40;99.90;;;;;;4992860;28;20430;-68
2021/04/17 04:49:31;;;;;;;7.15;0.63;;;17.50;99.90;;;;;;4994549;28;20074;-67
2021/04/17 04:51:58;;;;;;;5.30;0.98;;;17.50;99.90;;;;;;4992720;28;20057;-68
2021/04/17 04:54:25;;;;;;;7.20;0.82;;;17.70;99.90;;;;;;4994474;28;20041;-68
2021/04/17 04:56:53;;;;;;;6.18;0.77;;;17.70;99.90;;;;;;4992367;28;20030;-68
2021/04/17 04:59:20;;;;;;;6.03;0.70;;;17.80;99.90;;;;;;4994423;28;20487;-68
2021/04/17 05:01:47;;;;;;;3.67;0.80;;;18.00;99.90;;;;;;4989832;28;20057;-68
2021/04/17 05:04:15;;;;;;;7.35;0.70;;;18.10;99.90;;;;;;4994267;28;20030;-68
2021/04/17 05:06:42;;;;;;;4.70;0.60;;;18.20;99.90;;;;;;4992791;28;20034;-68
2021/04/17 05:09:10;;;;;;;4.90;0.75;;;18.30;99.90;;;;;;4994342;28;20383;-68
2021/04/17 05:11:38;;;;;;;6.32;0.80;;;18.30;99.90;;;;;;4990597;28;20038;-67
2021/04/17 05:14:05;;;;;;;8.20;0.95;;;18.40;99.90;;;;;;4992078;28;20430;-68
2021/04/17 05:16:32;;;;;;;3.25;0.60;;;18.40;99.90;;;;;;4992127;28;20092;-68
2021/04/17 05:19:00;;;;;;;5.05;0.90;;;18.30;99.90;;;;;;4992902;28;20479;-67
2021/04/17 05:21:28;;;;;;;4.90;0.40;;;18.30;99.90;;;;;;4991645;28;20473;-68
2021/04/17 05:23:56;;;;;;;7.70;0.95;;;18.30;99.90;;;;;;4993808;28;20491;-68
2021/04/17 05:26:23;;;;;;;6.53;0.70;;;18.30;99.90;;;;;;4992184;28;20069;-68
2021/04/17 05:28:51;;;;;;;6.47;1.45;;;18.20;99.90;;;;;;4993856;28;20038;-68
2021/04/17 05:31:18;;;;;;;5.15;1.00;;;18.20;99.90;;;;;;4991973;28;20046;-69
2021/04/17 05:33:45;;;;;;;10.15;1.30;;;18.20;99.90;;;;;;4993757;28;20031;-68
2021/04/17 05:36:13;;;;;;;7.72;1.38;;;18.20;99.90;;;;;;4991389;28;20131;-68
2021/04/17 05:38:40;;;;;;;6.70;1.17;;;18.20;99.90;;;;;;4991845;28;20113;-68
2021/04/17 05:41:07;;;;;;;4.25;0.80;;;18.20;99.90;;;;;;4993653;28;20026;-68
2021/04/17 05:43:34;;;;;;;5.38;0.77;;;18.20;99.90;;;;;;4992704;28;20069;-68
2021/04/17 05:46:02;;;;;;;5.88;0.82;;;18.20;99.90;;;;;;4993729;28;20546;-68
2021/04/17 05:48:30;;;;;;;6.82;1.52;;;18.20;99.90;;;;;;4991134;28;20030;-68
2021/04/17 05:50:58;;;;;;;10.25;2.17;;;18.10;99.90;;;;;;4993656;28;20565;-68
2021/04/17 05:53:26;;;;;;;8.27;1.60;;;18.10;99.90;;;;;;4991411;28;20018;-68
2021/04/17 05:55:54;;;;;;;7.20;2.30;;;18.10;99.90;;;;;;4992162;28;20058;-68
2021/04/17 05:58:21;;;;;;;8.30;2.30;;;18.10;99.90;;;;;;4990234;28;20085;-68
2021/04/17 06:00:48;;;;;;;7.70;3.03;;;18.00;99.90;;;;;;4993573;28;20026;-68
2021/04/17 06:03:16;;;;;;;13.10;3.70;;;18.00;99.90;;;;;;4991867;28;20037;-68
2021/04/17 06:05:43;;;;;;;12.27;4.18;;;18.00;99.90;;;;;;4993381;28;20060;-68
2021/04/17 06:08:10;;;;;;;13.70;6.40;;;17.90;99.90;;;;;;4991284;28;20033;-68
2021/04/17 06:10:37;;;;;;;16.70;7.90;;;17.90;99.90;;;;;;4993173;28;20038;-68
2021/04/17 06:13:05;;;;;;;23.85;12.55;;;17.80;99.90;;;;;;4991343;28;20034;-68
2021/04/17 06:15:32;;;;;;;25.80;16.25;;;17.80;99.90;;;;;;4991384;28;20022;-68
2021/04/17 06:17:59;;;;;;;27.27;18.60;;;17.70;99.90;;;;;;4991591;28;20041;-68
2021/04/17 06:20:27;;;;;;;32.95;22.42;;;17.70;99.90;;;;;;4993301;28;20030;-68
2021/04/17 06:22:55;;;;;;;34.35;24.40;;;17.70;99.90;;;;;;4991038;28;20101;-68
2021/04/17 06:25:22;;;;;;;43.65;28.65;;;17.60;99.90;;;;;;4993202;28;20077;-68
2021/04/17 06:27:49;;;;;;;66.32;49.65;;;17.60;99.90;;;;;;4990333;28;20519;-68
2021/04/17 06:30:17;;;;;;;87.85;65.88;;;17.60;99.90;;;;;;4993242;28;20022;-68
2021/04/17 06:32:45;;;;;;;95.10;71.90;;;17.50;99.90;;;;;;4991116;28;20037;-68
2021/04/17 06:35:13;;;;;;;93.20;69.90;;;17.50;99.90;;;;;;4993147;28;20034;-68
2021/04/17 06:37:40;;;;;;;89.40;68.75;;;17.50;99.90;;;;;;4991147;28;20042;-68
2021/04/17 06:40:08;;;;;;;92.15;66.05;;;17.50;99.90;;;;;;4992995;28;20026;-68
2021/04/17 06:42:40;;;;;;;86.60;60.97;;;17.50;99.90;;;;;;4988462;28;20046;-67
2021/04/17 06:45:08;;;;;;;85.13;58.03;;;17.50;99.90;;;;;;4995956;28;20027;-68
2021/04/17 06:47:38;;;;;;;74.20;52.83;;;17.60;99.90;;;;;;4995016;28;20034;-68
2021/04/17 06:50:06;;;;;;;75.28;52.95;;;17.70;99.90;;;;;;4994947;28;20425;-67
2021/04/17 06:52:38;;;;;;;67.05;49.42;;;17.70;99.90;;;;;;4994665;28;20061;-68
2021/04/17 06:55:08;;;;;;;61.67;45.90;;;17.60;99.90;;;;;;4996865;28;20084;-68
2021/04/17 06:57:36;;;;;;;57.20;40.90;;;17.60;99.90;;;;;;4994613;28;20113;-68
2021/04/17 07:00:06;;;;;;;56.75;37.50;;;17.60;99.90;;;;;;4996634;28;20413;-68
2021/04/17 07:02:33;;;;;;;49.03;32.58;;;17.50;99.90;;;;;;4994147;28;20081;-68
2021/04/17 07:05:01;;;;;;;46.05;32.05;;;17.50;99.90;;;;;;4991138;28;20475;-68
2021/04/17 07:07:33;;;;;;;47.97;32.67;;;17.60;99.90;;;;;;4994417;28;20034;-68
2021/04/17 07:10:00;;;;;;;37.20;26.13;;;17.60;99.90;;;;;;4995023;28;20046;-68
2021/04/17 07:12:28;;;;;;;35.88;23.77;;;17.60;99.90;;;;;;4994255;28;20419;-68
2021/04/17 07:14:56;;;;;;;36.38;23.73;;;17.70;99.90;;;;;;4994012;28;20030;-68
2021/04/17 07:17:24;;;;;;;34.45;22.13;;;17.60;99.90;;;;;;4994384;28;20038;-68
2021/04/17 07:19:56;;;;;;;36.58;24.08;;;17.50;99.90;;;;;;4994913;28;20042;-68
2021/04/17 07:22:41;;;;;;;37.75;24.67;;;17.50;99.90;;;;;;4994250;28;20054;-68
2021/04/17 07:25:07;;;;;;;;;;;17.40;99.90;;;;;;4996694;28;20073;-68
2021/04/17 07:27:36;;;;;;;31.33;21.35;;;17.50;99.90;;;;;;4994089;28;19933;-68
2021/04/17 07:30:16;;;;;;;30.15;19.17;;;17.40;99.90;;;;;;4996132;28;20030;-68
2021/04/17 07:33:09;;;;;;;30.95;18.98;;;17.40;99.90;;;;;;4994338;28;20483;-68
2021/04/17 07:35:46;;;;;;;28.88;17.88;;;17.30;99.90;;;;;;4993252;28;20549;-68
2021/04/17 07:38:16;;;;;;;31.13;17.52;;;17.20;99.90;;;;;;4993879;28;20490;-68
2021/04/17 07:41:08;;;;;;;26.73;17.70;;;17.20;99.90;;;;;;4994309;28;20015;-68
2021/04/17 07:43:55;;;;;;;31.42;15.70;;;17.10;99.90;;;;;;4993039;28;20053;-68
2021/04/17 07:46:25;;;;;;;26.23;15.95;;;17.00;99.90;;;;;;4991233;28;20138;-68
2021/04/17 07:49:09;;;;;;;20.70;13.27;;;17.00;99.90;;;;;;4994609;28;20094;-67
2021/04/17 07:51:54;;;;;;;23.13;14.60;;;17.00;99.90;;;;;;4993648;28;20046;-67
2021/04/17 07:54:21;;;;;;;16.65;10.93;;;17.10;99.90;;;;;;4995331;28;20018;-67
2021/04/17 07:56:49;;;;;;;20.98;11.30;;;17.10;99.90;;;;;;4991530;28;20026;-67
2021/04/17 07:59:21;;;;;;;19.80;10.40;;;17.00;99.90;;;;;;4995416;28;20030;-68
2021/04/17 08:01:50;;;;;;;20.02;10.63;;;16.80;99.90;;;;;;4992981;28;20037;-67
2021/04/17 08:04:24;;;;;;;15.63;9.68;;;16.80;99.90;;;;;;4993490;28;20023;-67
2021/04/17 08:06:53;;;;;;;14.77;8.68;;;16.80;99.90;;;;;;4993252;28;20402;-67
2021/04/17 08:09:25;;;;;;;15.68;8.05;;;16.70;99.90;;;;;;4995187;28;20018;-67
2021/04/17 08:11:56;;;;;;;16.35;8.02;;;16.70;99.90;;;;;;4991757;28;20019;-67
2021/04/17 08:14:25;;;;;;;15.20;7.50;;;16.70;99.90;;;;;;4992617;28;20157;-68
2021/04/17 08:16:53;;;;;;;19.80;6.93;;;16.60;99.90;;;;;;4993043;28;20069;-67
2021/04/17 08:19:21;;;;;;;14.85;6.60;;;16.60;99.90;;;;;;4991322;28;20026;-67
2021/04/17 08:21:51;;;;;;;13.57;5.97;;;16.70;99.90;;;;;;4992746;28;20134;-68
2021/04/17 08:24:26;;;;;;;14.95;5.93;;;16.70;99.90;;;;;;4994960;28;20109;-67
2021/04/17 08:26:54;;;;;;;11.68;4.80;;;16.60;99.90;;;;;;4992846;28;20130;-67
2021/04/17 08:29:43;;;;;;;13.30;5.72;;;16.60;99.90;;;;;;4994887;28;20022;-67
2021/04/17 08:32:24;;;;;;;12.05;5.82;;;16.60;99.90;;;;;;4993210;28;20085;-67
2021/04/17 08:35:20;;;;;;;15.35;5.03;;;16.60;99.90;;;;;;4994931;28;20399;-67
2021/04/17 08:37:56;;;;;;;10.18;5.45;;;16.60;99.90;;;;;;4993689;28;20042;-67
2021/04/17 08:40:38;;;;;;;9.88;3.83;;;16.50;99.90;;;;;;4994493;28;20034;-68
2021/04/17 08:43:18;;;;;;;12.43;4.85;;;16.50;99.90;;;;;;4992591;28;20026;-68
2021/04/17 08:46:07;;;;;;;14.07;5.28;;;16.50;99.90;;;;;;4994754;28;20430;-68
2021/04/17 08:48:52;;;;;;;9.27;4.00;;;16.50;99.90;;;;;;4993221;28;20399;-68
2021/04/17 08:51:22;;;;;;;11.40;3.92;;;16.50;99.90;;;;;;4991750;28;20049;-67
2021/04/17 08:54:01;;;;;;;13.70;4.57;;;16.50;99.90;;;;;;4989103;28;20026;-68
2021/04/17 08:56:49;;;;;;;14.23;5.30;;;16.50;99.90;;;;;;4977403;28;20030;-68
2021/04/17 08:59:21;;;;;;;14.32;5.68;;;16.50;99.90;;;;;;4993457;28;20027;-67
2021/04/17 09:01:49;;;;;;;16.63;5.32;;;16.50;99.90;;;;;;4991482;28;20039;-68
2021/04/17 09:04:17;;;;;;;15.75;5.60;;;16.50;99.90;;;;;;4991946;28;20030;-68
2021/04/17 09:06:49;;;;;;;14.82;5.93;;;16.40;99.90;;;;;;4983247;28;20018;-66
2021/04/17 09:09:20;;;;;;;13.73;5.63;;;16.30;99.90;;;;;;4973935;28;20037;-66
2021/04/17 09:11:54;;;;;;;17.40;6.63;;;16.30;99.90;;;;;;4976926;28;20026;-67
2021/04/17 09:14:34;;;;;;;16.92;6.00;;;16.20;99.90;;;;;;4990191;28;20400;-67
2021/04/17 09:17:06;;;;;;;13.88;6.60;;;16.20;99.90;;;;;;4991068;28;20022;-67
2021/04/17 09:19:49;;;;;;;14.55;7.07;;;16.30;99.90;;;;;;4993283;28;20038;-67
2021/04/17 09:25:00;;;;;;;14.93;7.35;;;16.30;99.90;;;;;;4993370;28;20030;-67
2021/04/17 09:27:34;;;;;;;19.48;8.80;;;16.20;99.90;;;;;;4991249;28;20020;-67
2021/04/17 09:30:02;;;;;;;18.55;8.98;;;16.20;99.90;;;;;;4993209;28;20056;-67
2021/04/17 09:32:37;;;;;;;21.92;9.02;;;16.20;99.90;;;;;;4990013;28;20137;-67
2021/04/17 09:35:20;;;;;;;17.25;9.07;;;16.20;99.90;;;;;;4991719;28;20488;-68
2021/04/17 09:37:49;;;;;;;21.83;9.50;;;16.10;99.90;;;;;;4991312;28;20053;-67
2021/04/17 09:40:17;;;;;;;22.58;9.77;;;16.10;99.90;;;;;;4993088;28;20391;-67
2021/04/17 09:42:44;;;;;;;19.23;10.32;;;16.10;99.90;;;;;;4989897;28;20034;-67
2021/04/17 09:45:12;;;;;;;22.52;11.18;;;16.20;99.90;;;;;;4992806;28;20052;-67
2021/04/17 09:47:57;;;;;;;19.20;10.52;;;16.10;99.90;;;;;;4990632;28;20026;-67
2021/04/17 09:50:26;;;;;;;26.73;11.85;;;16.10;99.90;;;;;;4893996;28;2871410;-68
2021/04/17 09:52:54;;;;;;;22.50;11.07;;;16.00;99.90;;;;;;4991772;28;20031;-68
2021/04/17 09:55:22;;;;;;;20.92;10.18;;;16.00;99.90;;;;;;4993337;28;20553;-68
2021/04/17 09:57:50;;;;;;;25.58;11.07;;;16.00;99.90;;;;;;4991526;28;20130;-68
2021/04/17 10:00:25;;;;;;;18.00;10.50;;;15.90;99.90;;;;;;4992084;28;20049;-68
2021/04/17 10:02:53;;;;;;;22.70;10.98;;;15.80;99.90;;;;;;4991282;28;20046;-68
2021/04/17 10:05:34;;;;;;;20.65;10.50;;;15.70;99.90;;;;;;4993360;28;20053;-68
2021/04/17 10:08:01;;;;;;;23.58;9.80;;;15.70;99.90;;;;;;4990983;28;20077;-68
2021/04/17 10:10:36;;;;;;;18.65;9.25;;;15.60;99.90;;;;;;4990223;28;20081;-68
2021/04/17 10:13:03;;;;;;;21.13;9.35;;;15.60;99.90;;;;;;4991109;28;20034;-68
2021/04/17 10:15:37;;;;;;;18.70;7.78;;;15.60;99.90;;;;;;4990980;28;20029;-68
2021/04/17 10:18:05;;;;;;;18.75;8.15;;;15.50;99.90;;;;;;4990592;28;20538;-68
2021/04/17 10:20:33;;;;;;;18.40;6.90;;;15.50;99.90;;;;;;4992820;28;20045;-68
2021/04/17 10:23:02;;;;;;;12.32;6.72;;;15.50;99.90;;;;;;4989934;28;20141;-68
2021/04/17 10:25:37;;;;;;;15.63;8.00;;;15.50;99.90;;;;;;4991745;28;20031;-68
2021/04/17 10:28:15;;;;;;;13.32;5.95;;;15.50;99.90;;;;;;4990965;28;20109;-68
2021/04/17 10:30:44;;;;;;;12.57;6.10;;;15.50;99.90;;;;;;4993011;28;20034;-68
2021/04/17 10:33:16;;;;;;;11.82;5.60;;;15.40;99.90;;;;;;4990956;28;20054;-68
2021/04/17 10:35:45;;;;;;;14.55;6.15;;;15.50;99.90;;;;;;4992872;28;20018;-68
2021/04/17 10:38:35;;;;;;;16.45;6.22;;;15.50;99.90;;;;;;4991228;28;20030;-68
2021/04/17 10:41:04;;;;;;;14.13;5.50;;;15.40;99.90;;;;;;4992801;28;20031;-68
2021/04/17 10:43:31;;;;;;;9.38;5.05;;;15.30;99.90;;;;;;4990548;28;20082;-68
2021/04/17 10:46:03;;;;;;;12.35;5.50;;;15.30;99.90;;;;;;4992882;28;20034;-68
2021/04/17 10:48:44;;;;;;;18.25;7.47;;;15.40;99.90;;;;;;4988151;28;20026;-68
2021/04/17 10:51:15;;;;;;;14.00;6.03;;;15.30;99.90;;;;;;4972576;28;20468;-67
2021/04/17 10:53:46;;;;;;;12.82;7.57;;;15.30;99.90;;;;;;4992230;28;20062;-68
2021/04/17 10:56:23;;;;;;;16.00;7.10;;;15.40;99.90;;;;;;4990650;28;20026;-68
2021/04/17 10:59:01;;;;;;;12.05;5.70;;;15.30;99.90;;;;;;4992922;28;20034;-68
2021/04/17 11:01:33;;;;;;;10.25;5.43;;;15.30;99.90;;;;;;4990700;28;20027;-68
2021/04/17 11:04:03;;;;;;;12.40;5.60;;;15.20;99.90;;;;;;4992923;28;20035;-68
2021/04/17 11:06:37;;;;;;;11.73;5.07;;;15.20;99.90;;;;;;4989342;28;20066;-68
2021/04/17 11:09:12;;;;;;;11.88;6.45;;;15.20;99.90;;;;;;4992621;28;20061;-68
2021/04/17 11:12:01;;;;;;;14.73;6.97;;;15.10;99.90;;;;;;4990608;28;20034;-68
2021/04/17 11:14:31;;;;;;;13.55;7.07;;;15.00;99.90;;;;;;4991206;28;20037;-68
2021/04/17 11:16:58;;;;;;;14.50;7.25;;;15.10;99.90;;;;;;4990804;28;20050;-68
2021/04/17 11:19:31;;;;;;;15.30;7.28;;;15.20;99.90;;;;;;4992637;28;20029;-68
2021/04/17 11:22:16;;;;;;;13.80;6.63;;;15.20;99.90;;;;;;4990734;28;20049;-68
2021/04/17 11:25:04;;;;;;;13.02;6.25;;;15.10;99.90;;;;;;4992481;28;20042;-68
2021/04/17 11:27:33;;;;;;;13.98;6.32;;;15.00;99.90;;;;;;4987703;28;20495;-68
2021/04/17 11:30:04;;;;;;;11.38;6.47;;;15.00;99.90;;;;;;4992534;28;20550;-68
2021/04/17 11:32:32;;;;;;;12.73;6.80;;;14.90;99.90;;;;;;4993301;28;20034;-68
2021/04/17 11:34:59;;;;;;;15.60;7.65;;;15.00;99.90;;;;;;4996022;28;20022;-68
2021/04/17 11:37:30;;;;;;;16.33;8.52;;;15.00;99.90;;;;;;4993658;28;20026;-68
2021/04/17 11:39:58;;;;;;;14.40;7.20;;;15.00;99.90;;;;;;4995713;28;20029;-68
2021/04/17 11:42:26;;;;;;;15.93;8.80;;;15.00;99.90;;;;;;4989559;28;20494;-68
2021/04/17 11:44:57;;;;;;;17.45;9.30;;;14.90;99.90;;;;;;4994527;28;20023;-68
2021/04/17 11:47:24;;;;;;;15.60;7.75;;;15.00;99.90;;;;;;4993670;28;20034;-68
2021/04/17 11:49:52;;;;;;;16.85;10.30;;;15.00;99.90;;;;;;4993806;28;20110;-68
2021/04/17 11:52:20;;;;;;;14.25;9.13;;;15.00;99.90;;;;;;4990460;28;20018;-68
2021/04/17 11:54:49;;;;;;;17.35;9.13;;;15.00;99.90;;;;;;4995468;28;20023;-68
2021/04/17 11:57:17;;;;;;;19.27;8.80;;;15.00;99.90;;;;;;4992045;28;20490;-68
2021/04/17 11:59:44;;;;;;;18.58;8.85;;;14.90;99.90;;;;;;4995296;28;20391;-68
2021/04/17 12:02:12;;;;;;;17.40;8.68;;;14.90;99.90;;;;;;4993603;28;20023;-68
2021/04/17 12:04:39;;;;;;;16.63;8.57;;;14.90;99.90;;;;;;4992242;28;20069;-68
2021/04/17 12:07:06;;;;;;;14.90;8.30;;;14.70;99.90;;;;;;4992132;28;20498;-68
2021/04/17 12:09:33;;;;;;;17.30;7.93;;;14.60;99.90;;;;;;4993473;28;20495;-68
2021/04/17 12:12:00;;;;;;;20.30;8.07;;;14.60;99.90;;;;;;4993633;28;20034;-68
2021/04/17 12:14:31;;;;;;;13.63;7.63;;;14.60;99.90;;;;;;4993739;28;20085;-68
2021/04/17 12:16:58;;;;;;;15.75;7.78;;;14.60;99.90;;;;;;4993229;28;20395;-68
2021/04/17 12:19:25;;;;;;;17.23;8.93;;;14.50;99.90;;;;;;4995184;28;20030;-68
2021/04/17 12:21:52;;;;;;;17.73;8.40;;;14.50;99.90;;;;;;4992181;28;20129;-68
2021/04/17 12:24:19;;;;;;;22.63;8.43;;;14.50;99.90;;;;;;4995166;28;20123;-68
2021/04/17 12:26:47;;;;;;;20.45;7.57;;;14.60;99.90;;;;;;4992139;28;20030;-68
2021/04/17 12:29:14;;;;;;;12.98;7.50;;;14.60;99.90;;;;;;4995024;28;20030;-68
2021/04/17 12:31:42;;;;;;;19.20;7.60;;;14.50;99.90;;;;;;4993300;28;20639;-68
2021/04/17 12:34:09;;;;;;;15.75;6.97;;;14.50;99.90;;;;;;4994999;28;20026;-68
2021/04/17 12:36:36;;;;;;;14.27;7.30;;;14.60;99.90;;;;;;4993013;28;20023;-68
2021/04/17 12:39:05;;;;;;;15.85;7.63;;;14.60;99.90;;;;;;4995000;28;20054;-68
2021/04/17 12:41:34;;;;;;;12.23;7.63;;;14.50;99.90;;;;;;4988877;28;20419;-68
2021/04/17 12:44:02;;;;;;;16.20;6.93;;;14.50;99.90;;;;;;4995105;28;20101;-68
2021/04/17 12:46:29;;;;;;;20.23;8.93;;;14.60;99.90;;;;;;4992786;28;20057;-68
2021/04/17 12:48:57;;;;;;;19.77;7.75;;;14.50;99.90;;;;;;4993432;28;20034;-68
2021/04/17 12:51:24;;;;;;;16.70;7.68;;;14.40;99.90;;;;;;4992665;28;20022;-68
2021/04/17 12:53:51;;;;;;;12.40;7.25;;;14.40;99.90;;;;;;4994672;28;20027;-68
2021/04/17 12:56:18;;;;;;;16.98;8.35;;;14.40;99.90;;;;;;4975896;28;20113;-68